createdAt,value
2016-12-15T14:01:26.949Z,1065
2016-12-15T14:01:43.682Z,1030
2016-12-15T14:02:00.425Z,1065
2016-12-15T14:02:17.139Z,1140
2016-12-15T14:02:33.870Z,1210
2016-12-15T14:02:50.608Z,1240
2016-12-15T14:03:07.344Z,1255
2016-12-15T14:03:24.363Z,1305
2016-12-15T14:03:41.663Z,1285
2016-12-15T14:04:29.658Z,1180
2016-12-15T14:04:46.480Z,1190
2016-12-15T14:05:03.296Z,1210
2016-12-15T14:05:20.447Z,1220
2016-12-15T14:06:10.138Z,1135
2016-12-15T14:06:27.423Z,1115
2016-12-15T14:06:44.137Z,1130
2016-12-15T14:07:00.899Z,1165
2016-12-15T14:07:17.673Z,1190
2016-12-15T14:07:34.427Z,1205
2016-12-15T14:07:51.148Z,1175
2016-12-15T14:08:07.854Z,1125
2016-12-15T14:08:24.592Z,1070
2016-12-15T14:08:41.340Z,990
2016-12-15T14:08:58.098Z,960
2016-12-15T14:09:14.975Z,980
2016-12-15T14:09:31.799Z,1070
2016-12-15T14:09:48.520Z,1135
2016-12-15T14:10:05.335Z,1175
2016-12-15T14:10:22.607Z,1190
2016-12-15T14:10:39.366Z,1195
2016-12-15T14:10:56.100Z,1200
2016-12-15T14:11:12.940Z,1170
2016-12-15T14:11:29.752Z,1145
2016-12-15T14:11:46.564Z,1095
2016-12-15T14:12:03.370Z,1055
2016-12-15T14:12:20.166Z,1030
2016-12-15T14:12:36.985Z,995
2016-12-15T14:12:53.783Z,970
2016-12-15T14:13:10.515Z,970
2016-12-15T14:13:27.267Z,995
2016-12-15T14:13:44.067Z,990
2016-12-15T14:14:00.860Z,915
2016-12-15T14:14:17.603Z,855
2016-12-15T14:14:34.340Z,810
2016-12-15T14:14:51.071Z,790
2016-12-15T14:15:07.844Z,755
2016-12-15T14:15:24.579Z,720
2016-12-15T14:15:41.356Z,705
2016-12-15T14:15:58.064Z,695
2016-12-15T14:16:14.790Z,690
2016-12-15T14:16:31.618Z,680
2016-12-15T14:16:49.376Z,650
2016-12-15T14:17:06.122Z,635
2016-12-15T14:17:22.833Z,620
2016-12-15T14:17:39.547Z,605
2016-12-15T14:17:56.293Z,580
2016-12-15T14:18:12.993Z,555
2016-12-15T14:18:29.741Z,530
2016-12-15T14:18:46.489Z,515
2016-12-15T14:19:03.215Z,510
2016-12-15T14:19:19.947Z,505
2016-12-15T14:19:36.678Z,500
2016-12-15T14:19:53.432Z,495
2016-12-15T14:20:10.129Z,485
2016-12-15T14:20:27.384Z,480
2016-12-15T14:20:44.116Z,480
2016-12-15T14:21:00.843Z,485
2016-12-15T14:21:17.593Z,485
2016-12-15T14:21:34.844Z,480
2016-12-15T14:21:51.579Z,475
2016-12-15T14:22:08.845Z,455
2016-12-15T14:22:25.592Z,440
2016-12-15T14:22:42.306Z,440
2016-12-15T14:22:59.056Z,455
2016-12-15T14:23:15.770Z,460
2016-12-15T14:23:32.517Z,455
2016-12-15T14:23:49.239Z,435
2016-12-15T14:24:05.963Z,420
2016-12-15T14:24:22.681Z,410
2016-12-15T14:24:39.419Z,400
2016-12-15T14:24:56.676Z,385
2016-12-15T14:25:13.392Z,385
2016-12-15T14:25:30.136Z,390
2016-12-15T14:25:46.841Z,385
2016-12-15T14:26:03.587Z,385
2016-12-15T14:26:20.353Z,405
2016-12-15T14:26:37.614Z,425
2016-12-15T14:26:54.359Z,420
2016-12-15T14:27:11.094Z,405
2016-12-15T14:27:27.842Z,390
2016-12-15T14:27:44.578Z,370
2016-12-15T14:28:01.327Z,360
2016-12-15T14:28:18.051Z,355
2016-12-15T14:28:34.814Z,360
2016-12-15T14:28:51.581Z,365
2016-12-15T14:29:08.303Z,375
2016-12-15T14:29:25.052Z,385
2016-12-15T14:29:41.780Z,380
2016-12-15T14:29:59.011Z,375
2016-12-15T14:30:15.774Z,375
2016-12-15T14:30:32.497Z,375
2016-12-15T14:30:49.211Z,370
2016-12-15T14:31:05.934Z,375
2016-12-15T14:31:22.678Z,400
2016-12-15T14:31:40.607Z,405
2016-12-15T14:31:57.966Z,395
2016-12-15T14:32:15.003Z,385
2016-12-15T14:32:31.731Z,370
2016-12-15T14:32:48.466Z,370
2016-12-15T14:33:05.217Z,395
2016-12-15T14:33:21.943Z,415
2016-12-15T14:33:38.673Z,420
2016-12-15T14:33:55.431Z,430
2016-12-15T14:34:12.140Z,445
2016-12-15T14:34:28.873Z,465
2016-12-15T14:34:45.587Z,485
2016-12-15T14:35:02.328Z,505
2016-12-15T14:35:19.048Z,545
2016-12-15T14:35:35.801Z,595
2016-12-15T14:35:52.528Z,610
2016-12-15T14:36:09.262Z,645
2016-12-15T14:36:26.522Z,715
2016-12-15T14:36:43.250Z,770
2016-12-15T14:37:00.035Z,800
2016-12-15T14:37:17.329Z,835
2016-12-15T14:37:34.086Z,870
2016-12-15T14:37:50.834Z,885
2016-12-15T14:38:08.111Z,915
2016-12-15T14:38:24.855Z,950
2016-12-15T14:38:41.610Z,1025
2016-12-15T14:38:58.838Z,1185
2016-12-15T14:39:15.550Z,1390
2016-12-15T14:39:32.268Z,1580
2016-12-15T14:39:48.973Z,1735
2016-12-15T14:40:05.723Z,1820
2016-12-15T14:40:22.472Z,1875
2016-12-15T14:40:39.193Z,1920
2016-12-15T14:40:55.904Z,1940
2016-12-15T14:41:12.646Z,1980
2016-12-15T14:41:29.358Z,2040
2016-12-15T14:41:46.103Z,2095
2016-12-15T14:42:02.835Z,2125
2016-12-15T14:42:19.562Z,2120
2016-12-15T14:42:36.301Z,2130
2016-12-15T14:42:53.000Z,2085
2016-12-15T14:43:10.226Z,1975
2016-12-15T14:43:26.951Z,1870
2016-12-15T14:43:58.204Z,1835
2016-12-15T14:44:14.930Z,1960
2016-12-15T14:44:31.665Z,2180
2016-12-15T14:44:48.407Z,2375
2016-12-15T14:45:05.126Z,2605
2016-12-15T14:45:21.857Z,2440
2016-12-15T14:45:38.587Z,2250
2016-12-15T14:45:55.311Z,2205
2016-12-15T14:46:12.536Z,2140
2016-12-15T14:46:29.409Z,1845
2016-12-15T14:46:46.128Z,1760
2016-12-15T14:47:02.863Z,1790
2016-12-15T14:47:19.810Z,1820
2016-12-15T14:47:36.539Z,1885
2016-12-15T14:47:53.266Z,2035
2016-12-15T14:48:09.990Z,2460
2016-12-15T14:48:26.758Z,3735
2016-12-15T14:48:43.492Z,2645
2016-12-15T14:49:00.285Z,2015
2016-12-15T14:49:17.058Z,1870
2016-12-15T14:49:33.767Z,1850
2016-12-15T14:49:50.516Z,1855
2016-12-15T14:50:07.278Z,2045
2016-12-15T14:50:24.534Z,2060
2016-12-15T14:50:41.283Z,1965
2016-12-15T14:50:58.017Z,1895
2016-12-15T14:51:14.749Z,1910
2016-12-15T14:51:31.594Z,2140
2016-12-15T14:51:48.464Z,2215
2016-12-15T14:52:05.300Z,2165
2016-12-15T14:52:22.081Z,2150
2016-12-15T14:52:38.860Z,2080
2016-12-15T14:52:55.592Z,2235
2016-12-15T14:53:12.343Z,2695
2016-12-15T14:53:29.087Z,2875
2016-12-15T14:53:45.833Z,2385
2016-12-15T14:54:02.605Z,2090
2016-12-15T14:54:34.366Z,2780
2016-12-15T14:54:51.624Z,2310
2016-12-15T14:55:08.374Z,2580
2016-12-15T14:55:25.124Z,3715
2016-12-15T14:55:41.891Z,3390
2016-12-15T14:55:58.609Z,2510
2016-12-15T14:56:15.332Z,3835
2016-12-15T14:56:32.166Z,3285
2016-12-15T14:56:48.963Z,2295
2016-12-15T14:57:05.768Z,2175
2016-12-15T14:57:22.521Z,2115
2016-12-15T14:57:39.260Z,2005
2016-12-15T14:57:55.978Z,2075
2016-12-15T14:58:12.836Z,3790
2016-12-15T14:58:30.081Z,2300
2016-12-15T14:58:46.803Z,2120
2016-12-15T14:59:03.546Z,2050
2016-12-15T14:59:20.277Z,2220
2016-12-15T14:59:37.489Z,3030
2016-12-15T14:59:54.675Z,3680
2016-12-15T15:00:11.391Z,3090
2016-12-15T15:00:28.175Z,2490
2016-12-15T15:00:44.922Z,2570
2016-12-15T15:01:01.735Z,2070
2016-12-15T15:01:18.493Z,1950
2016-12-15T15:01:35.249Z,1950
2016-12-15T15:01:52.004Z,2410
2016-12-15T15:02:08.736Z,1935
2016-12-15T15:02:25.556Z,1940
2016-12-15T15:02:42.328Z,2050
2016-12-15T15:02:59.062Z,1985
2016-12-15T15:03:15.812Z,1830
2016-12-15T15:03:32.562Z,1830
2016-12-15T15:03:49.310Z,1935
2016-12-15T15:04:06.048Z,2425
2016-12-15T15:04:22.787Z,2300
2016-12-15T15:04:39.501Z,2220
2016-12-15T15:04:56.239Z,2880
2016-12-15T15:05:12.985Z,2880
2016-12-15T15:05:29.708Z,2450
2016-12-15T15:05:46.432Z,1970
2016-12-15T15:06:03.224Z,1855
2016-12-15T15:06:20.474Z,1805
2016-12-15T15:06:37.371Z,1685
2016-12-15T15:06:54.079Z,1620
2016-12-15T15:07:10.799Z,1555
2016-12-15T15:07:27.518Z,1520
2016-12-15T15:07:44.245Z,1510
2016-12-15T15:08:00.990Z,1490
2016-12-15T15:08:17.707Z,1450
2016-12-15T15:08:34.444Z,1400
2016-12-15T15:08:51.412Z,1315
2016-12-15T15:09:08.142Z,1225
2016-12-15T15:09:24.873Z,1180
2016-12-15T15:09:41.623Z,1200
2016-12-15T15:09:58.379Z,1285
2016-12-15T15:10:15.158Z,1370
2016-12-15T15:10:31.926Z,1365
2016-12-15T15:10:48.665Z,1280
2016-12-15T15:11:05.408Z,1240
2016-12-15T15:11:22.136Z,1255
2016-12-15T15:11:38.893Z,1330
2016-12-15T15:11:55.637Z,1425
2016-12-15T15:12:12.394Z,1505
2016-12-15T15:12:29.113Z,1445
2016-12-15T15:12:45.852Z,1365
2016-12-15T15:13:02.613Z,1350
2016-12-15T15:13:19.364Z,1320
2016-12-15T15:13:36.107Z,1230
2016-12-15T15:13:52.902Z,1085
2016-12-15T15:14:09.600Z,1030
2016-12-15T15:14:26.367Z,1020
2016-12-15T15:14:43.090Z,1005
2016-12-15T15:14:59.845Z,960
2016-12-15T15:15:16.573Z,875
2016-12-15T15:15:33.424Z,795
2016-12-15T15:15:50.271Z,725
2016-12-15T15:16:06.997Z,665
2016-12-15T15:16:23.743Z,635
2016-12-15T15:16:40.529Z,615
2016-12-15T15:16:57.267Z,610
2016-12-15T15:17:14.054Z,625
2016-12-15T15:17:30.794Z,650
2016-12-15T15:17:48.066Z,680
2016-12-15T15:18:05.098Z,715
2016-12-15T15:18:21.804Z,750
2016-12-15T15:18:38.554Z,760
2016-12-15T15:18:55.276Z,740
2016-12-15T15:19:12.196Z,685
2016-12-15T15:19:28.919Z,635
2016-12-15T15:19:45.751Z,585
2016-12-15T15:20:02.752Z,550
2016-12-15T15:20:19.527Z,540
2016-12-15T15:20:36.312Z,520
2016-12-15T15:20:53.057Z,520
2016-12-15T15:21:09.777Z,525
2016-12-15T15:21:26.536Z,535
2016-12-15T15:21:43.419Z,545
2016-12-15T15:22:00.162Z,560
2016-12-15T15:22:16.882Z,580
2016-12-15T15:22:33.627Z,595
2016-12-15T15:22:50.896Z,590
2016-12-15T15:23:07.623Z,585
2016-12-15T15:23:24.513Z,570
2016-12-15T15:23:41.730Z,555
2016-12-15T15:23:58.480Z,535
2016-12-15T15:24:15.337Z,525
2016-12-15T15:24:32.101Z,520
2016-12-15T15:24:48.841Z,510
2016-12-15T15:25:05.577Z,505
2016-12-15T15:25:22.288Z,510
2016-12-15T15:25:39.069Z,525
2016-12-15T15:25:55.791Z,545
2016-12-15T15:26:12.543Z,570
2016-12-15T15:26:29.305Z,605
2016-12-15T15:26:46.547Z,640
2016-12-15T15:27:03.272Z,670
2016-12-15T15:27:19.980Z,680
2016-12-15T15:27:36.734Z,675
2016-12-15T15:27:53.522Z,655
2016-12-15T15:28:10.782Z,620
2016-12-15T15:28:27.536Z,590
2016-12-15T15:28:44.349Z,565
2016-12-15T15:29:01.071Z,545
2016-12-15T15:29:17.918Z,520
2016-12-15T15:29:34.757Z,510
2016-12-15T15:29:51.490Z,505
2016-12-15T15:30:08.451Z,500
2016-12-15T15:30:25.144Z,500
2016-12-15T15:30:41.907Z,495
2016-12-15T15:30:58.623Z,495
2016-12-15T15:31:15.409Z,490
2016-12-15T15:31:32.207Z,495
2016-12-15T15:31:48.975Z,500
2016-12-15T15:32:05.747Z,510
2016-12-15T15:32:22.535Z,530
2016-12-15T15:32:39.268Z,545
2016-12-15T15:32:56.021Z,550
2016-12-15T15:33:12.780Z,535
2016-12-15T15:33:29.499Z,515
2016-12-15T15:33:46.216Z,510
2016-12-15T15:34:03.038Z,510
2016-12-15T15:34:19.768Z,505
2016-12-15T15:34:36.587Z,500
2016-12-15T15:34:53.409Z,500
2016-12-15T15:35:10.268Z,495
2016-12-15T15:35:27.768Z,510
2016-12-15T15:35:44.523Z,535
2016-12-15T15:36:32.558Z,665
2016-12-15T15:36:49.413Z,700
2016-12-15T15:37:06.221Z,710
2016-12-15T15:37:23.103Z,690
2016-12-15T15:37:39.928Z,680
2016-12-15T15:37:56.666Z,655
2016-12-15T15:38:13.391Z,620
2016-12-15T15:38:30.152Z,620
2016-12-15T15:38:46.929Z,650
2016-12-15T15:39:03.680Z,675
2016-12-15T15:39:20.420Z,670
2016-12-15T15:39:37.308Z,670
2016-12-15T15:39:54.151Z,700
2016-12-15T15:40:10.940Z,810
2016-12-15T15:40:27.693Z,925
2016-12-15T15:40:44.391Z,950
2016-12-15T15:41:01.733Z,885
2016-12-15T15:41:18.410Z,820
2016-12-15T15:41:35.166Z,810
2016-12-15T15:41:51.968Z,870
2016-12-15T15:42:08.759Z,935
2016-12-15T15:42:25.483Z,990
2016-12-15T15:42:42.220Z,1035
2016-12-15T15:42:59.050Z,1105
2016-12-15T15:43:15.783Z,1200
2016-12-15T15:43:32.623Z,1355
2016-12-15T15:43:49.342Z,1475
2016-12-15T15:44:06.100Z,1395
2016-12-15T15:44:22.923Z,1280
2016-12-15T15:44:39.633Z,1210
2016-12-15T15:44:56.426Z,1165
2016-12-15T15:45:13.171Z,1110
2016-12-15T15:45:44.597Z,1025
2016-12-15T15:46:01.681Z,1040
2016-12-15T15:46:18.739Z,1105
2016-12-15T15:46:35.482Z,1230
2016-12-15T15:46:52.841Z,1465
2016-12-15T15:47:09.560Z,1835
2016-12-15T15:47:26.335Z,2505
2016-12-15T15:47:43.171Z,2785
2016-12-15T15:47:59.916Z,3185
2016-12-15T15:48:16.726Z,3405
2016-12-15T15:48:33.469Z,2285
2016-12-15T15:48:50.329Z,2090
2016-12-15T15:49:07.177Z,1940
2016-12-15T15:49:23.933Z,1815
2016-12-15T15:49:40.653Z,1685
2016-12-15T15:49:57.399Z,1730
2016-12-15T15:50:14.126Z,2365
2016-12-15T15:50:30.867Z,2245
2016-12-15T15:50:47.692Z,2855
2016-12-15T15:51:04.499Z,4060
2016-12-15T15:51:21.206Z,3770
2016-12-15T15:51:37.948Z,3080
2016-12-15T15:51:55.039Z,2935
2016-12-15T15:52:11.765Z,2915
2016-12-15T15:52:28.491Z,2795
2016-12-15T15:52:45.303Z,2555
2016-12-15T15:53:02.073Z,2435
2016-12-15T15:53:18.803Z,2825
2016-12-15T15:53:35.614Z,2825
2016-12-15T15:54:07.419Z,2655
2016-12-15T15:54:24.163Z,2085
2016-12-15T15:54:40.901Z,1885
2016-12-15T15:54:57.657Z,1725
2016-12-15T15:55:46.355Z,1260
2016-12-15T15:56:03.363Z,1175
2016-12-15T15:56:20.727Z,1110
2016-12-15T15:56:37.518Z,1060
2016-12-15T15:56:54.765Z,1025
2016-12-15T15:57:11.540Z,1025
2016-12-15T15:57:28.314Z,1065
2016-12-15T15:57:45.056Z,1100
2016-12-15T15:58:01.777Z,1110
2016-12-15T15:58:18.605Z,1075
2016-12-15T15:58:35.380Z,1015
2016-12-15T15:58:52.129Z,970
2016-12-15T15:59:08.921Z,925
2016-12-15T15:59:25.632Z,865
2016-12-15T15:59:42.912Z,810
2016-12-15T15:59:59.645Z,775
2016-12-15T16:00:16.933Z,750
2016-12-15T16:00:33.676Z,755
2016-12-15T16:00:50.432Z,765
2016-12-15T16:01:07.677Z,790
2016-12-15T16:01:24.416Z,795
2016-12-15T16:01:41.169Z,760
2016-12-15T16:01:57.897Z,715
2016-12-15T16:02:14.732Z,670
2016-12-15T16:02:31.508Z,645
2016-12-15T16:02:48.256Z,635
2016-12-15T16:03:04.982Z,640
2016-12-15T16:03:21.722Z,685
2016-12-15T16:03:38.447Z,755
2016-12-15T16:03:55.180Z,855
2016-12-15T16:04:12.480Z,925
2016-12-15T16:04:29.272Z,960
2016-12-15T16:04:46.044Z,955
2016-12-15T16:05:02.772Z,935
2016-12-15T16:05:19.503Z,925
2016-12-15T16:05:36.236Z,920
2016-12-15T16:05:52.966Z,905
2016-12-15T16:06:24.234Z,855
2016-12-15T16:06:41.614Z,840
2016-12-15T16:06:58.615Z,840
2016-12-15T16:07:15.531Z,830
2016-12-15T16:07:33.298Z,820
2016-12-15T16:07:51.271Z,810
2016-12-15T16:08:22.984Z,795
2016-12-15T16:08:39.901Z,795
2016-12-15T16:08:57.467Z,825
2016-12-15T16:09:14.957Z,845
2016-12-15T16:09:31.873Z,840
2016-12-15T16:09:48.687Z,815
2016-12-15T16:10:05.404Z,775
2016-12-15T16:10:54.005Z,745
2016-12-15T16:11:10.803Z,770
2016-12-15T16:11:27.634Z,820
2016-12-15T16:11:44.396Z,890
2016-12-15T16:12:01.135Z,945
2016-12-15T16:12:18.366Z,925
2016-12-15T16:12:35.066Z,850
2016-12-15T16:13:06.289Z,735
2016-12-15T16:13:38.105Z,725
2016-12-15T16:13:54.854Z,765
2016-12-15T16:14:11.659Z,820
2016-12-15T16:14:28.400Z,860
2016-12-15T16:14:45.353Z,895
2016-12-15T16:15:02.107Z,910
2016-12-15T16:15:18.824Z,895
2016-12-15T16:15:35.544Z,860
2016-12-15T16:15:52.356Z,835
2016-12-15T16:16:09.106Z,830
2016-12-15T16:16:25.889Z,850
2016-12-15T16:16:57.237Z,880
2016-12-15T16:17:14.418Z,855
2016-12-15T16:17:45.847Z,815
2016-12-15T16:18:02.701Z,830
2016-12-15T16:18:19.807Z,885
2016-12-15T16:18:36.787Z,920
2016-12-15T16:18:53.529Z,895
2016-12-15T16:19:10.337Z,845
2016-12-15T16:19:27.101Z,825
2016-12-15T16:19:43.846Z,830
2016-12-15T16:20:00.601Z,875
2016-12-15T16:20:17.313Z,920
2016-12-15T16:20:34.030Z,950
2016-12-15T16:20:50.769Z,945
2016-12-15T16:21:08.026Z,925
2016-12-15T16:21:24.884Z,885
2016-12-15T16:21:41.636Z,850
2016-12-15T16:21:58.368Z,815
2016-12-15T16:22:15.089Z,795
2016-12-15T16:22:32.330Z,785
2016-12-15T16:22:49.280Z,785
2016-12-15T16:23:06.073Z,785
2016-12-15T16:23:22.842Z,795
2016-12-15T16:23:40.652Z,800
2016-12-15T16:23:57.377Z,800
2016-12-15T16:24:14.097Z,805
2016-12-15T16:24:31.152Z,820
2016-12-15T16:24:47.909Z,845
2016-12-15T16:25:04.627Z,875
2016-12-15T16:25:22.069Z,925
2016-12-15T16:25:38.829Z,955
2016-12-15T16:25:55.556Z,970
2016-12-15T16:26:12.360Z,980
2016-12-15T16:26:29.152Z,1000
2016-12-15T16:26:45.893Z,1060
2016-12-15T16:27:02.619Z,1180
2016-12-15T16:27:19.348Z,1330
2016-12-15T16:27:36.047Z,1435
2016-12-15T16:27:52.845Z,1435
2016-12-15T16:28:24.436Z,1385
2016-12-15T16:28:41.421Z,1425
2016-12-15T16:28:58.272Z,1540
2016-12-15T16:29:15.131Z,1695
2016-12-15T16:29:31.958Z,1875
2016-12-15T16:29:48.689Z,1720
2016-12-15T16:30:05.418Z,1615
2016-12-15T16:30:22.150Z,1615
2016-12-15T16:30:38.911Z,1665
2016-12-15T16:30:55.678Z,1690
2016-12-15T16:31:12.393Z,1710
2016-12-15T16:31:29.133Z,1480
2016-12-15T16:31:45.845Z,1390
2016-12-15T16:32:02.606Z,1330
2016-12-15T16:32:19.431Z,1320
2016-12-15T16:32:36.222Z,1405
2016-12-15T16:32:52.916Z,1545
2016-12-15T16:33:09.693Z,1630
2016-12-15T16:33:26.900Z,1600
2016-12-15T16:33:43.609Z,1480
2016-12-15T16:34:00.364Z,1410
2016-12-15T16:34:17.169Z,1425
2016-12-15T16:34:33.872Z,1535
2016-12-15T16:34:50.663Z,1715
2016-12-15T16:35:07.413Z,1870
2016-12-15T16:35:24.203Z,2025
2016-12-15T16:35:40.977Z,1975
2016-12-15T16:35:57.727Z,1915
2016-12-15T16:36:14.981Z,1930
2016-12-15T16:36:31.719Z,1965
2016-12-15T16:36:48.444Z,1945
2016-12-15T16:37:05.181Z,2035
2016-12-15T16:37:21.902Z,2060
2016-12-15T16:37:38.641Z,2065
2016-12-15T16:37:55.477Z,2040
2016-12-15T16:38:12.254Z,1990
2016-12-15T16:38:28.981Z,1895
2016-12-15T16:38:45.720Z,1835
2016-12-15T16:39:02.494Z,1820
2016-12-15T16:39:19.269Z,1835
2016-12-15T16:39:36.013Z,1765
2016-12-15T16:40:24.001Z,1445
2016-12-15T16:40:40.877Z,1380
2016-12-15T16:40:57.637Z,1310
2016-12-15T16:41:14.954Z,1225
2016-12-15T16:41:31.721Z,1145
2016-12-15T16:41:49.038Z,1065
2016-12-15T16:42:05.757Z,1005
2016-12-15T16:42:22.466Z,970
2016-12-15T16:42:39.199Z,975
2016-12-15T16:42:56.136Z,1000
2016-12-15T16:43:27.493Z,1010
2016-12-15T16:43:44.272Z,945
2016-12-15T16:44:01.006Z,890
2016-12-15T16:44:17.782Z,880
2016-12-15T16:44:34.547Z,900
2016-12-15T16:44:51.278Z,920
2016-12-15T16:45:08.033Z,900
2016-12-15T16:45:24.757Z,870
2016-12-15T16:45:41.774Z,855
2016-12-15T16:45:58.549Z,875
2016-12-15T16:46:15.512Z,905
2016-12-15T16:46:32.241Z,935
2016-12-15T16:46:48.992Z,940
2016-12-15T16:47:06.247Z,935
2016-12-15T16:47:23.020Z,920
2016-12-15T16:47:39.761Z,905
2016-12-15T16:47:56.605Z,900
2016-12-15T16:48:13.350Z,915
2016-12-15T16:48:30.325Z,920
2016-12-15T16:48:47.088Z,915
2016-12-15T16:49:03.868Z,895
2016-12-15T16:49:20.639Z,880
2016-12-15T16:49:37.397Z,880
2016-12-15T16:49:54.149Z,880
2016-12-15T16:50:42.992Z,815
2016-12-15T16:50:59.732Z,775
2016-12-15T16:51:16.524Z,740
2016-12-15T16:51:33.247Z,705
2016-12-15T16:51:49.998Z,675
2016-12-15T16:52:06.723Z,655
2016-12-15T16:52:23.426Z,645
2016-12-15T16:52:40.188Z,630
2016-12-15T16:52:57.116Z,620
2016-12-15T16:53:14.351Z,610
2016-12-15T16:53:31.101Z,605
2016-12-15T16:53:48.465Z,605
2016-12-15T16:54:05.238Z,610
2016-12-15T16:54:22.073Z,605
2016-12-15T16:54:38.829Z,605
2016-12-15T16:54:55.796Z,590
2016-12-15T16:55:13.023Z,580
2016-12-15T16:55:29.778Z,580
2016-12-15T16:55:47.181Z,580
2016-12-15T16:56:04.036Z,565
2016-12-15T16:56:20.901Z,540
2016-12-15T16:56:37.778Z,520
2016-12-15T16:56:54.519Z,515
2016-12-15T16:57:11.321Z,535
2016-12-15T16:57:28.061Z,550
2016-12-15T16:57:44.850Z,560
2016-12-15T16:58:02.100Z,545
2016-12-15T16:58:18.861Z,535
2016-12-15T16:58:36.109Z,525
2016-12-15T16:58:52.833Z,520
2016-12-15T16:59:09.658Z,515
2016-12-15T16:59:26.404Z,505
2016-12-15T16:59:43.214Z,505
2016-12-15T16:59:59.975Z,495
2016-12-15T17:00:17.327Z,500
2016-12-15T17:00:34.044Z,505
2016-12-15T17:00:50.850Z,515
2016-12-15T17:01:08.118Z,520
2016-12-15T17:01:24.856Z,520
2016-12-15T17:01:41.625Z,515
2016-12-15T17:01:58.873Z,530
2016-12-15T17:02:15.641Z,525
2016-12-15T17:02:32.355Z,520
2016-12-15T17:02:49.099Z,545
2016-12-15T17:03:05.799Z,575
2016-12-15T17:03:23.085Z,620
2016-12-15T17:03:40.381Z,650
2016-12-15T17:03:57.342Z,660
2016-12-15T17:04:14.068Z,650
2016-12-15T17:04:30.882Z,620
2016-12-15T17:04:47.597Z,600
2016-12-15T17:05:04.367Z,580
2016-12-15T17:05:21.097Z,550
2016-12-15T17:05:37.838Z,530
2016-12-15T17:05:54.617Z,505
2016-12-15T17:06:11.314Z,495
2016-12-15T17:06:28.106Z,490
2016-12-15T17:06:44.828Z,500
2016-12-15T17:07:01.584Z,515
2016-12-15T17:07:18.315Z,540
2016-12-15T17:08:06.473Z,575
2016-12-15T17:08:23.229Z,565
2016-12-15T17:08:39.988Z,570
2016-12-15T17:08:56.715Z,605
2016-12-15T17:09:13.515Z,675
2016-12-15T17:09:30.233Z,735
2016-12-15T17:09:47.019Z,800
2016-12-15T17:10:03.760Z,830
2016-12-15T17:10:20.479Z,845
2016-12-15T17:10:37.212Z,840
2016-12-15T17:11:09.078Z,750
2016-12-15T17:11:25.804Z,685
2016-12-15T17:11:42.546Z,630
2016-12-15T17:11:59.327Z,595
2016-12-15T17:12:16.083Z,610
2016-12-15T17:12:32.860Z,650
2016-12-15T17:12:49.640Z,705
2016-12-15T17:13:07.047Z,735
2016-12-15T17:13:24.790Z,745
2016-12-15T17:13:41.535Z,755
2016-12-15T17:13:58.277Z,790
2016-12-15T17:14:15.070Z,845
2016-12-15T17:14:31.861Z,900
2016-12-15T17:14:48.632Z,935
2016-12-15T17:15:05.338Z,930
2016-12-15T17:15:22.082Z,890
2016-12-15T17:15:38.839Z,835
2016-12-15T17:15:55.579Z,800
2016-12-15T17:16:12.306Z,825
2016-12-15T17:16:29.028Z,890
2016-12-15T17:16:45.759Z,955
2016-12-15T17:17:02.481Z,1035
2016-12-15T17:17:19.282Z,1110
2016-12-15T17:17:36.023Z,1190
2016-12-15T17:17:53.056Z,1225
2016-12-15T17:18:09.904Z,1215
2016-12-15T17:18:26.849Z,1140
2016-12-15T17:18:43.588Z,1065
2016-12-15T17:19:00.523Z,980
2016-12-15T17:19:17.254Z,915
2016-12-15T17:19:34.517Z,845
2016-12-15T17:19:51.272Z,810
2016-12-15T17:20:08.008Z,780
2016-12-15T17:20:24.791Z,780
2016-12-15T17:20:41.531Z,785
2016-12-15T17:20:58.273Z,775
2016-12-15T17:21:15.034Z,740
2016-12-15T17:21:31.813Z,695
2016-12-15T17:21:48.554Z,655
2016-12-15T17:22:05.281Z,630
2016-12-15T17:22:22.049Z,615
2016-12-15T17:22:38.838Z,605
2016-12-15T17:22:55.655Z,595
2016-12-15T17:23:13.543Z,595
2016-12-15T17:23:30.448Z,585
2016-12-15T17:23:47.703Z,580
2016-12-15T17:24:04.616Z,580
2016-12-15T17:24:21.317Z,590
2016-12-15T17:24:38.074Z,595
2016-12-15T17:24:54.826Z,600
2016-12-15T17:25:11.631Z,585
2016-12-15T17:25:28.397Z,575
2016-12-15T17:25:45.177Z,565
2016-12-15T17:26:02.000Z,550
2016-12-15T17:26:18.749Z,535
2016-12-15T17:26:35.503Z,530
2016-12-15T17:26:52.279Z,525
2016-12-15T17:27:09.052Z,535
2016-12-15T17:27:25.853Z,540
2016-12-15T17:27:42.632Z,540
2016-12-15T17:27:59.889Z,535
2016-12-15T17:28:16.811Z,520
2016-12-15T17:28:33.713Z,505
2016-12-15T17:28:50.451Z,485
2016-12-15T17:29:07.216Z,475
2016-12-15T17:29:23.982Z,465
2016-12-15T17:29:41.222Z,470
2016-12-15T17:29:58.017Z,475
2016-12-15T17:30:14.837Z,485
2016-12-15T17:30:31.667Z,500
2016-12-15T17:30:48.401Z,515
2016-12-15T17:31:05.304Z,535
2016-12-15T17:31:22.048Z,560
2016-12-15T17:31:38.763Z,585
2016-12-15T17:31:55.546Z,595
2016-12-15T17:32:12.679Z,610
2016-12-15T17:32:29.477Z,635
2016-12-15T17:32:46.233Z,680
2016-12-15T17:33:02.965Z,725
2016-12-15T17:33:19.789Z,780
2016-12-15T17:33:36.552Z,835
2016-12-15T17:33:53.284Z,890
2016-12-15T17:34:10.563Z,910
2016-12-15T17:34:27.335Z,900
2016-12-15T17:34:44.605Z,875
2016-12-15T17:35:01.348Z,870
2016-12-15T17:35:18.102Z,880
2016-12-15T17:35:34.820Z,855
2016-12-15T17:35:51.532Z,855
2016-12-15T17:36:08.236Z,845
2016-12-15T17:36:24.951Z,825
2016-12-15T17:36:41.704Z,775
2016-12-15T17:36:58.516Z,720
2016-12-15T17:37:15.911Z,670
2016-12-15T17:37:32.745Z,665
2016-12-15T17:37:50.237Z,705
2016-12-15T17:38:06.954Z,755
2016-12-15T17:38:23.749Z,780
2016-12-15T17:38:40.484Z,770
2016-12-15T17:38:57.234Z,750
2016-12-15T17:39:13.970Z,740
2016-12-15T17:39:30.702Z,715
2016-12-15T17:39:47.454Z,685
2016-12-15T17:40:04.416Z,645
2016-12-15T17:40:21.393Z,620
2016-12-15T17:40:38.117Z,590
2016-12-15T17:40:54.838Z,580
2016-12-15T17:41:11.557Z,575
2016-12-15T17:41:28.341Z,555
2016-12-15T17:41:45.325Z,535
2016-12-15T17:42:02.090Z,515
2016-12-15T17:42:19.323Z,505
2016-12-15T17:42:36.039Z,500
2016-12-15T17:42:52.898Z,500
2016-12-15T17:43:09.815Z,495
2016-12-15T17:43:26.562Z,485
2016-12-15T17:43:43.386Z,480
2016-12-15T17:44:00.199Z,475
2016-12-15T17:44:16.966Z,475
2016-12-15T17:44:33.770Z,470
2016-12-15T17:44:50.566Z,465
2016-12-15T17:45:07.288Z,465
2016-12-15T17:45:24.581Z,460
2016-12-15T17:45:41.589Z,450
2016-12-15T17:45:58.314Z,435
2016-12-15T17:46:15.121Z,420
2016-12-15T17:46:31.858Z,420
2016-12-15T17:46:48.620Z,425
2016-12-15T17:47:05.337Z,430
2016-12-15T17:47:22.060Z,430
2016-12-15T17:47:38.884Z,435
2016-12-15T17:47:55.627Z,445
2016-12-15T17:48:12.462Z,445
2016-12-15T17:48:29.199Z,450
2016-12-15T17:48:46.434Z,445
2016-12-15T17:49:03.179Z,440
2016-12-15T17:49:19.905Z,445
2016-12-15T17:49:36.634Z,445
2016-12-15T17:49:53.336Z,465
2016-12-15T17:50:10.051Z,485
2016-12-15T17:50:26.912Z,500
2016-12-15T17:50:43.635Z,510
2016-12-15T17:51:00.365Z,505
2016-12-15T17:51:17.137Z,515
2016-12-15T17:51:33.848Z,510
2016-12-15T17:51:50.592Z,515
2016-12-15T17:52:07.359Z,515
2016-12-15T17:52:24.076Z,535
2016-12-15T17:52:40.821Z,555
2016-12-15T17:52:57.564Z,590
2016-12-15T17:53:14.308Z,615
2016-12-15T17:53:31.057Z,630
2016-12-15T17:53:47.833Z,650
2016-12-15T17:54:04.536Z,670
2016-12-15T17:54:22.119Z,705
2016-12-15T17:54:38.875Z,745
2016-12-15T17:54:55.646Z,775
2016-12-15T17:55:12.444Z,790
2016-12-15T17:55:29.224Z,805
2016-12-15T17:55:45.994Z,825
2016-12-15T17:56:02.711Z,855
2016-12-15T17:56:19.472Z,875
2016-12-15T17:56:36.797Z,900
2016-12-15T17:56:53.559Z,920
2016-12-15T17:57:10.866Z,935
2016-12-15T17:57:42.316Z,910
2016-12-15T17:57:59.391Z,890